Time;durP1;ratioP1;P1;durP2;ratioP2;P2;SDS_P1;SDS_P2;PMS_P1;PMS_P2;Temp;Humidity;BMP_temperature;BMP_pressure;BME280_temperature;BME280_humidity;BME280_pressure;Samples;Min_cycle;Max_cycle;Signal;HPM_P1;HPM_P2
2021/10/11 00:01:25;;;;;;;25.95;10.55;;;;;;;7.68;61.88;101831.10;1634590;85;21129;-53
2021/10/11 00:03:52;;;;;;;25.37;10.20;;;;;;;7.62;61.96;101824.44;1634222;86;21116;-52
2021/10/11 00:06:19;;;;;;;29.05;10.15;;;;;;;7.59;62.10;101832.47;1630594;86;21072;-53
2021/10/11 00:08:46;;;;;;;25.72;10.90;;;;;;;7.56;62.17;101825.81;1644642;84;21579;-54
2021/10/11 00:14:03;;;;;;;24.20;10.58;;;;;;;7.54;62.32;101830.27;1634514;86;21139;-53
2021/10/11 00:16:30;;;;;;;32.80;11.63;;;;;;;7.53;62.32;101824.06;1647852;85;21078;-54
2021/10/11 00:18:57;;;;;;;26.52;10.72;;;;;;;7.49;62.37;101824.08;1626500;86;21097;-52
2021/10/11 00:21:27;;;;;;;27.77;10.90;;;;;;;7.44;62.34;101829.00;1628692;85;21621;-53
2021/10/11 00:23:54;;;;;;;25.82;11.22;;;;;;;7.41;62.55;101822.34;1646209;85;21114;-53
2021/10/11 00:26:21;;;;;;;24.70;9.33;;;;;;;7.41;62.55;101827.68;1627985;86;21704;-53
2021/10/11 00:28:48;;;;;;;25.35;9.68;;;;;;;7.38;62.37;101824.13;1631214;86;21100;-53
2021/10/11 00:31:15;;;;;;;21.02;9.33;;;;;;;7.37;62.28;101821.89;1652012;85;21168;-53
2021/10/11 00:33:47;;;;;;;31.07;10.25;;;;;;;7.35;62.19;101817.02;1647499;85;21676;-53
2021/10/11 00:36:14;;;;;;;23.85;9.60;;;;;;;7.30;62.33;101810.81;1649147;84;21105;-53
2021/10/11 00:38:42;;;;;;;21.57;9.53;;;;;;;7.23;62.39;101809.08;1650994;85;22148;-54
2021/10/11 00:41:09;;;;;;;26.40;9.93;;;;;;;7.17;62.50;101809.52;1634203;86;21676;-54
2021/10/11 00:43:39;;;;;;;23.07;9.48;;;;;;;7.13;62.54;101809.09;1647942;85;21078;-53
2021/10/11 00:46:18;;;;;;;19.80;9.33;;;;;;;7.09;62.41;101806.47;1631231;85;21168;-53
2021/10/11 00:51:30;;;;;;;26.73;9.75;;;;;;;7.00;62.25;101798.05;1628109;86;21101;-53
2021/10/11 00:53:57;;;;;;;37.78;10.13;;;;;;;6.97;62.11;101796.73;1639370;85;21685;-53
2021/10/11 00:56:24;;;;;;;24.95;9.20;;;;;;;6.93;61.79;101796.27;1635191;86;21777;-53
2021/10/11 00:58:51;;;;;;;23.32;9.30;;;;;;;6.90;61.72;101792.28;1630891;85;21766;-53
2021/10/11 01:01:26;;;;;;;26.27;9.13;;;;;;;6.91;61.55;101784.73;1652074;85;21040;-54
2021/10/11 01:03:46;;;;;;;25.57;9.28;;;;;;;6.87;61.48;101788.74;1647166;85;21069;-54
2021/10/11 01:06:12;;;;;;;25.35;9.70;;;;;;;6.84;61.20;101788.75;1645891;85;21064;-53
2021/10/11 01:08:40;;;;;;;19.30;9.33;;;;;;;6.82;61.05;101778.97;1616749;86;21098;-53
2021/10/11 01:14:01;;;;;;;29.07;9.53;;;;;;;6.80;61.13;101781.66;1634775;85;21087;-53
2021/10/11 01:19:09;;;;;;;24.65;10.20;;;;;;;6.78;60.89;101779.45;1648247;84;21071;-53
2021/10/11 01:26:44;;;;;;;50.63;10.28;;;;;;;6.73;60.69;101762.56;1644887;85;21086;-53
2021/10/11 01:29:13;;;;;;;23.67;10.38;;;;;;;6.71;60.65;101766.58;1648158;84;21078;-53
2021/10/11 01:31:40;;;;;;;34.20;10.63;;;;;;;6.69;60.61;101759.03;1646125;84;21846;-53
2021/10/11 01:34:06;;;;;;;29.32;10.85;;;;;;;6.66;60.67;101748.39;1647429;85;21114;-52
2021/10/11 01:36:34;;;;;;;22.60;10.05;;;;;;;6.65;60.45;101752.37;1647715;85;21898;-53
2021/10/11 01:39:04;;;;;;;23.12;10.10;;;;;;;6.63;60.44;101756.39;1618630;86;21106;-52
2021/10/11 01:41:31;;;;;;;25.52;9.53;;;;;;;6.62;60.28;101763.05;1647106;84;21080;-53
2021/10/11 01:43:58;;;;;;;23.92;10.13;;;;;;;6.62;60.16;101756.38;1638326;85;21160;-53
2021/10/11 01:46:25;;;;;;;22.70;10.45;;;;;;;6.59;60.05;101751.50;1651813;84;21608;-54
2021/10/11 01:48:52;;;;;;;28.62;10.40;;;;;;;6.57;59.94;101750.62;1638212;85;21299;-53
2021/10/11 01:51:19;;;;;;;22.73;9.80;;;;;;;6.55;60.02;101751.08;1661925;83;21112;-53
2021/10/11 01:53:46;;;;;;;23.80;10.15;;;;;;;6.52;59.99;101747.09;1670260;84;21002;-53
2021/10/11 01:56:13;;;;;;;30.95;10.60;;;;;;;6.51;59.90;101744.42;1663410;84;21166;-53
2021/10/11 01:58:40;;;;;;;22.55;10.18;;;;;;;6.48;59.95;101742.63;1669396;84;21084;-54
2021/10/11 02:01:07;;;;;;;20.95;10.13;;;;;;;6.47;59.97;101737.33;1663476;84;21570;-53
2021/10/11 02:03:34;;;;;;;26.52;9.53;;;;;;;6.45;59.98;101739.98;1667153;84;21045;-53
2021/10/11 02:06:01;;;;;;;25.10;10.30;;;;;;;6.44;59.94;101741.77;1667427;84;21066;-54
2021/10/11 02:08:28;;;;;;;29.37;10.75;;;;;;;6.44;59.84;101739.54;1672298;84;21099;-53
2021/10/11 02:10:55;;;;;;;30.30;11.57;;;;;;;6.42;59.93;101741.32;1662862;84;21052;-53
2021/10/11 02:13:22;;;;;;;27.45;10.50;;;;;;;6.41;59.90;101740.88;1673889;84;21148;-54
2021/10/11 02:18:55;;;;;;;24.27;10.28;;;;;;;6.38;60.01;101747.55;1659357;85;21683;-53
2021/10/11 02:21:39;;;;;;;22.62;10.13;;;;;;;6.34;60.30;101741.33;1658440;85;21084;-53
2021/10/11 02:24:06;;;;;;;21.82;10.72;;;;;;;6.32;60.26;101735.58;1672999;84;21019;-53
2021/10/11 02:26:36;;;;;;;27.35;12.33;;;;;;;6.30;60.35;101736.47;1664385;84;21822;-55
2021/10/11 02:29:05;;;;;;;23.75;10.38;;;;;;;6.28;60.28;101738.22;1663152;84;21105;-53
2021/10/11 02:31:32;;;;;;;24.35;10.32;;;;;;;6.26;60.07;101732.47;1665846;83;21073;-53
2021/10/11 02:33:59;;;;;;;21.30;10.18;;;;;;;6.26;59.57;101742.66;1642590;85;21852;-53
2021/10/11 02:36:25;;;;;;;32.05;10.90;;;;;;;6.27;59.54;101733.78;1667399;84;21074;-53
2021/10/11 02:38:54;;;;;;;34.95;11.03;;;;;;;6.25;59.27;101730.23;1665441;84;21139;-54
2021/10/11 02:41:26;;;;;;;27.27;10.13;;;;;;;6.25;59.10;101727.58;1664248;84;21070;-53
2021/10/11 02:43:53;;;;;;;34.20;11.85;;;;;;;6.24;59.00;101718.27;1671821;84;21633;-54
2021/10/11 02:46:21;;;;;;;31.02;10.68;;;;;;;6.22;58.73;101719.59;1671258;84;47360;-55
2021/10/11 02:48:49;;;;;;;37.63;10.70;;;;;;;6.22;58.77;101717.39;1659120;84;21165;-54
2021/10/11 02:51:15;;;;;;;20.32;9.60;;;;;;;6.20;58.88;101721.37;1662452;84;21150;-55
2021/10/11 02:53:42;;;;;;;23.27;9.90;;;;;;;6.18;58.82;101714.27;1657832;84;21155;-53
2021/10/11 02:56:09;;;;;;;29.52;11.33;;;;;;;6.18;58.82;101711.17;1656572;84;21124;-54
2021/10/11 02:58:36;;;;;;;31.30;11.03;;;;;;;6.15;58.87;101700.06;1658745;84;21179;-55
2021/10/11 03:01:03;;;;;;;25.75;10.53;;;;;;;6.13;58.76;101709.84;1618407;85;21116;-53
2021/10/11 03:03:32;;;;;;;25.12;10.55;;;;;;;6.13;58.72;101700.98;1661460;84;21093;-53
2021/10/11 03:05:59;;;;;;;30.02;10.50;;;;;;;6.09;58.64;101705.41;1663006;84;21088;-54
2021/10/11 03:08:26;;;;;;;27.73;11.43;;;;;;;6.09;58.68;101702.75;1659277;84;21083;-54
2021/10/11 03:11:03;;;;;;;27.20;11.40;;;;;;;6.09;58.64;101705.87;1665158;84;21094;-54
2021/10/11 03:13:30;;;;;;;35.40;11.90;;;;;;;6.10;58.60;101704.98;1631622;86;21070;-54
2021/10/11 03:15:57;;;;;;;33.80;11.30;;;;;;;6.09;58.65;101692.56;1665324;84;21518;-54
2021/10/11 03:18:24;;;;;;;30.23;11.95;;;;;;;6.08;58.51;101692.08;1655716;84;21068;-54
2021/10/11 03:20:51;;;;;;;45.85;14.10;;;;;;;6.07;58.70;101695.64;1662639;84;21129;-54
2021/10/11 03:23:18;;;;;;;39.38;12.58;;;;;;;6.06;58.68;101696.52;1663696;84;21714;-54
2021/10/11 03:25:48;;;;;;;32.88;11.53;;;;;;;6.05;58.69;101700.08;1660520;84;21723;-54
2021/10/11 03:28:14;;;;;;;30.08;11.90;;;;;;;6.01;58.68;101699.22;1665025;84;21558;-54
2021/10/11 03:30:41;;;;;;;29.92;11.90;;;;;;;6.01;59.00;101697.42;1660464;84;21113;-54
2021/10/11 03:35:38;;;;;;;29.20;11.78;;;;;;;6.05;59.21;101690.33;1671613;83;21627;-54
2021/10/11 03:38:05;;;;;;;35.88;12.28;;;;;;;6.04;59.41;101692.55;1666843;84;21081;-54
2021/10/11 03:40:32;;;;;;;27.05;11.48;;;;;;;6.04;59.54;101688.98;1668805;84;21152;-54
2021/10/11 03:42:58;;;;;;;37.60;11.93;;;;;;;6.00;59.67;101678.31;1666466;84;20968;-54
2021/10/11 03:45:25;;;;;;;35.38;13.43;;;;;;;5.96;59.90;101687.20;1675038;84;21124;-54
2021/10/11 03:47:52;;;;;;;43.83;12.78;;;;;;;5.94;59.98;101684.08;1662904;84;21106;-54
2021/10/11 03:50:19;;;;;;;29.87;11.08;;;;;;;5.90;59.88;101683.22;1628701;86;21344;-54
2021/10/11 03:52:58;;;;;;;35.63;11.88;;;;;;;5.89;59.89;101689.43;1627991;86;22104;-54
2021/10/11 03:55:25;;;;;;;31.05;12.15;;;;;;;5.85;59.69;101689.86;1629341;86;21176;-56
2021/10/11 03:57:52;;;;;;;28.87;11.28;;;;;;;5.85;59.63;101696.52;1644396;85;21573;-54
2021/10/11 04:00:19;;;;;;;26.10;11.80;;;;;;;5.85;59.57;101692.95;1634423;86;21113;-54
2021/10/11 04:02:47;;;;;;;28.92;12.80;;;;;;;5.83;59.65;101683.66;1635661;86;21128;-54
2021/10/11 04:05:14;;;;;;;35.83;11.97;;;;;;;5.83;59.78;101693.40;1653601;84;22265;-55
2021/10/11 04:07:43;;;;;;;40.63;13.30;;;;;;;5.82;59.81;101685.88;1638026;86;21105;-53
2021/10/11 04:10:11;;;;;;;37.08;12.60;;;;;;;5.82;59.90;101679.65;1635320;86;21129;-54
2021/10/11 04:12:39;;;;;;;25.80;10.43;;;;;;;5.85;59.90;101691.63;1654388;85;21727;-54
2021/10/11 04:18:09;;;;;;;26.17;10.98;;;;;;;5.83;59.81;101684.98;1650002;85;21176;-54
2021/10/11 04:20:48;;;;;;;40.20;11.65;;;;;;;5.79;59.85;101688.55;1651205;84;21555;-53
2021/10/11 04:23:15;;;;;;;29.32;10.20;;;;;;;5.78;59.92;101679.22;1646336;85;21068;-52
2021/10/11 04:25:42;;;;;;;35.17;10.80;;;;;;;5.77;59.85;101680.11;1651859;84;22009;-53
2021/10/11 04:28:11;;;;;;;37.10;11.78;;;;;;;5.80;59.93;101673.45;1651333;84;21462;-53
2021/10/11 04:30:38;;;;;;;29.37;10.65;;;;;;;5.99;59.63;101671.22;1651622;84;21761;-54
2021/10/11 04:33:05;;;;;;;28.67;10.68;;;;;;;6.24;58.83;101674.33;1653078;84;21151;-55
2021/10/11 04:35:32;;;;;;;23.32;10.00;;;;;;;6.44;58.16;101674.27;1648931;84;21558;-55
2021/10/11 04:37:59;;;;;;;30.32;11.12;;;;;;;6.61;57.34;101677.33;1656404;84;21699;-55
2021/10/11 04:40:26;;;;;;;26.85;10.60;;;;;;;6.66;57.03;101675.09;1647568;84;21345;-54
2021/10/11 04:42:56;;;;;;;27.10;11.20;;;;;;;6.66;56.92;101675.09;1652850;85;21570;-52
2021/10/11 04:45:33;;;;;;;31.50;11.22;;;;;;;6.62;56.92;101683.09;1632050;86;21159;-53
2021/10/11 04:48:06;;;;;;;25.85;9.78;;;;;;;6.56;57.07;101676.91;1635258;86;21140;-53
2021/10/11 04:50:35;;;;;;;22.10;10.10;;;;;;;6.55;57.21;101674.23;1639475;84;21115;-55
2021/10/11 04:55:34;;;;;;;21.87;9.98;;;;;;;6.57;57.12;101666.69;1641686;85;21123;-53
2021/10/11 04:58:01;;;;;;;23.65;10.58;;;;;;;6.63;57.17;101666.22;1632481;85;21613;-54
2021/10/11 05:00:28;;;;;;;29.50;10.10;;;;;;;6.70;57.15;101665.29;1642105;85;21070;-59
2021/10/11 05:02:55;;;;;;;23.73;10.48;;;;;;;6.75;56.78;101666.18;1619888;86;21111;-55
2021/10/11 05:05:22;;;;;;;24.18;10.18;;;;;;;6.80;56.89;101667.04;1645560;84;21528;-55
2021/10/11 05:07:49;;;;;;;27.62;10.98;;;;;;;6.91;56.69;101666.09;1633835;86;21145;-54
2021/10/11 05:10:16;;;;;;;24.45;11.35;;;;;;;6.97;56.40;101664.75;1634160;85;21554;-54
2021/10/11 05:12:43;;;;;;;26.97;10.75;;;;;;;7.02;56.52;101660.27;1641977;85;21136;-54
2021/10/11 05:17:58;;;;;;;30.48;11.03;;;;;;;7.28;56.08;101661.88;1633817;86;21149;-52
2021/10/11 05:20:26;;;;;;;26.75;11.35;;;;;;;7.37;56.09;101667.14;1630273;86;21093;-54
2021/10/11 05:23:02;;;;;;;25.12;10.75;;;;;;;7.49;55.96;101658.62;1649862;84;21112;-54
2021/10/11 05:25:41;;;;;;;31.42;11.65;;;;;;;7.61;55.85;101663.85;1597267;87;21534;-54
2021/10/11 05:33:28;;;;;;;26.35;10.90;;;;;;;7.96;55.14;101667.15;1599538;87;21158;-53
2021/10/11 05:35:55;;;;;;;23.05;10.85;;;;;;;8.07;54.78;101673.69;1651455;85;21056;-54
2021/10/11 05:38:30;;;;;;;31.45;11.03;;;;;;;8.19;54.62;101668.23;1634840;86;21036;-54
2021/10/11 05:40:56;;;;;;;;;;;;;;;8.35;54.43;101664.94;1636149;86;22228;-55
2021/10/11 05:46:14;;;;;;;28.12;11.18;;;;;;;8.52;53.75;101651.45;1635239;86;21079;-54
2021/10/11 05:48:41;;;;;;;33.18;11.10;;;;;;;8.66;53.80;101644.59;1603592;87;21138;-54
2021/10/11 05:55:08;;;;;;;31.57;11.15;;;;;;;9.10;52.37;101654.23;1642644;83;21167;-55
2021/10/11 05:57:35;;;;;;;31.30;12.07;;;;;;;9.04;51.91;101659.68;1671408;84;21079;-54
2021/10/11 06:00:04;;;;;;;45.35;12.78;;;;;;;8.99;52.09;101658.40;1666594;84;21570;-58
2021/10/11 06:02:31;;;;;;;28.92;11.88;;;;;;;8.99;52.21;101666.89;1673354;84;21073;-56
2021/10/11 06:04:59;;;;;;;35.40;11.73;;;;;;;9.05;52.29;101660.55;1716481;81;21086;-60
2021/10/11 06:07:27;;;;;;;33.38;11.85;;;;;;;9.14;52.09;101662.64;1724713;81;21595;-55
2021/10/11 06:09:55;;;;;;;34.88;12.30;;;;;;;9.21;52.12;101659.91;1721895;81;21038;-55
2021/10/11 06:12:22;;;;;;;35.95;11.80;;;;;;;9.35;52.24;101667.25;1707772;81;21111;-60
2021/10/11 06:14:52;;;;;;;31.75;12.78;;;;;;;9.47;51.69;101668.84;1718787;81;21812;-62
2021/10/11 06:17:19;;;;;;;37.53;12.75;;;;;;;9.52;51.44;101659.42;1715963;81;21115;-58
2021/10/11 06:19:46;;;;;;;22.67;11.38;;;;;;;9.55;51.51;101660.70;1703987;82;21671;-54
2021/10/11 06:22:13;;;;;;;38.08;11.83;;;;;;;9.60;51.37;101656.15;1655358;85;21108;-55
2021/10/11 06:24:40;;;;;;;37.98;12.28;;;;;;;9.66;51.50;101653.39;1682977;83;21943;-56
2021/10/11 06:27:08;;;;;;;34.27;12.88;;;;;;;9.79;51.47;101670.13;1682430;83;21153;-55
2021/10/11 06:29:35;;;;;;;39.10;12.20;;;;;;;9.87;51.46;101667.33;1684238;83;21056;-55
2021/10/11 06:32:02;;;;;;;42.83;13.50;;;;;;;9.97;51.37;101668.92;1675709;84;20999;-59
2021/10/11 06:34:29;;;;;;;40.28;13.45;;;;;;;10.11;51.37;101667.80;1653844;85;20928;-59
2021/10/11 06:36:56;;;;;;;35.17;12.90;;;;;;;10.26;51.49;101662.13;1666334;84;21798;-61
2021/10/11 06:39:23;;;;;;;32.03;12.78;;;;;;;10.48;51.42;101664.91;1663370;84;21538;-54
2021/10/11 06:41:50;;;;;;;28.20;11.50;;;;;;;10.71;51.28;101663.07;1662634;84;21122;-54
2021/10/11 06:44:17;;;;;;;31.12;12.80;;;;;;;10.87;51.26;101656.47;1664578;84;21136;-56
2021/10/11 06:46:45;;;;;;;32.63;13.28;;;;;;;11.01;51.27;101659.33;1662514;84;21132;-55
2021/10/11 06:49:13;;;;;;;26.90;12.37;;;;;;;11.15;51.01;101665.24;1654676;85;21539;-56
2021/10/11 06:51:40;;;;;;;26.30;12.45;;;;;;;11.30;51.61;101662.69;1663292;84;21029;-55
2021/10/11 06:54:07;;;;;;;26.50;12.47;;;;;;;11.40;52.27;101666.04;1645448;84;21146;-55
2021/10/11 06:56:34;;;;;;;24.27;11.93;;;;;;;11.38;53.18;101654.42;1664021;84;21500;-55
2021/10/11 06:59:02;;;;;;;25.00;11.45;;;;;;;11.41;53.74;101658.41;1671872;84;21694;-56
2021/10/11 07:01:29;;;;;;;23.70;11.48;;;;;;;11.45;53.81;101658.75;1677536;84;21552;-56
2021/10/11 07:03:56;;;;;;;24.32;12.00;;;;;;;11.44;54.35;101648.03;1670034;83;21505;-56
2021/10/11 07:06:25;;;;;;;24.55;11.50;;;;;;;11.39;54.13;101639.21;1669708;84;21125;-61
2021/10/11 07:08:52;;;;;;;29.98;11.83;;;;;;;11.32;54.95;101631.76;1666289;84;21159;-58
2021/10/11 07:11:20;;;;;;;19.55;11.83;;;;;;;11.36;54.91;101641.50;1670218;84;21285;-58
2021/10/11 07:13:47;;;;;;;19.42;10.85;;;;;;;11.39;54.82;101633.40;1666273;84;21547;-60
2021/10/11 07:16:16;;;;;;;26.75;10.98;;;;;;;11.42;55.15;101631.97;1671514;84;21137;-60
2021/10/11 07:18:43;;;;;;;26.85;12.23;;;;;;;11.50;55.18;101637.16;1671312;84;21576;-55
2021/10/11 07:21:10;;;;;;;26.05;11.88;;;;;;;11.59;55.36;101644.08;1662111;84;21115;-56
2021/10/11 07:23:38;;;;;;;23.40;11.80;;;;;;;11.73;54.98;101654.50;1659437;84;21111;-60
2021/10/11 07:26:06;;;;;;;34.15;12.53;;;;;;;11.83;54.59;101664.08;1668216;84;21867;-61
2021/10/11 07:28:34;;;;;;;28.30;12.13;;;;;;;11.83;54.43;101665.91;1666387;84;21075;-60
2021/10/11 07:31:01;;;;;;;23.92;12.30;;;;;;;11.85;54.51;101660.02;1666347;84;21611;-56
2021/10/11 07:33:28;;;;;;;25.30;13.13;;;;;;;11.83;54.71;101653.33;1659238;83;21138;-55
2021/10/11 07:35:55;;;;;;;26.57;12.82;;;;;;;11.85;54.68;101644.77;1650305;85;21171;-54
2021/10/11 07:38:22;;;;;;;23.70;12.88;;;;;;;11.88;55.11;101649.19;1668995;84;21596;-56
2021/10/11 07:40:49;;;;;;;25.10;11.83;;;;;;;11.93;55.14;101643.23;1682099;83;21584;-60
2021/10/11 07:43:17;;;;;;;23.67;12.05;;;;;;;11.99;55.18;101630.96;1690305;83;22300;-60
2021/10/11 07:45:45;;;;;;;28.07;12.30;;;;;;;11.99;55.17;101629.61;1654886;85;21140;-60
2021/10/11 07:48:13;;;;;;;25.65;12.37;;;;;;;11.99;55.46;101617.52;1663055;84;21008;-60
2021/10/11 07:50:41;;;;;;;28.73;12.43;;;;;;;12.00;55.64;101611.22;1653493;85;21135;-60
2021/10/11 07:53:08;;;;;;;25.00;12.65;;;;;;;12.08;55.54;101606.16;1669997;84;21367;-59
2021/10/11 07:55:36;;;;;;;33.80;12.85;;;;;;;12.12;55.79;101614.06;1673607;83;21106;-60
2021/10/11 07:58:04;;;;;;;23.47;11.97;;;;;;;12.21;55.85;101622.82;1717332;81;21088;-59
2021/10/11 08:00:32;;;;;;;32.28;13.15;;;;;;;12.31;55.73;101620.28;1725525;81;22311;-60
2021/10/11 08:02:59;;;;;;;23.67;12.78;;;;;;;12.40;55.63;101613.75;1726826;81;21807;-60
2021/10/11 08:05:26;;;;;;;21.10;11.80;;;;;;;12.46;55.78;101604.16;1724056;82;21055;-59
2021/10/11 08:07:53;;;;;;;26.45;12.75;;;;;;;12.51;55.60;101604.92;1727557;81;21045;-60
2021/10/11 08:10:20;;;;;;;27.70;13.65;;;;;;;12.55;55.17;101602.56;1701302;83;21892;-54
2021/10/11 08:12:48;;;;;;;30.30;13.08;;;;;;;12.59;55.32;101605.56;1716761;81;21150;-56
2021/10/11 08:15:18;;;;;;;24.32;12.47;;;;;;;12.63;55.54;101598.75;1723994;82;21055;-55
2021/10/11 08:17:45;;;;;;;23.67;12.78;;;;;;;12.65;55.46;101596.44;1721773;81;21137;-54
2021/10/11 08:20:12;;;;;;;22.82;12.03;;;;;;;12.65;54.81;101590.16;1725263;81;21143;-55
2021/10/11 08:22:39;;;;;;;27.02;12.63;;;;;;;12.61;54.32;101600.16;1723100;81;21585;-55
2021/10/11 08:25:08;;;;;;;21.27;12.25;;;;;;;12.55;54.28;101592.25;1722966;81;21444;-55
2021/10/11 08:27:35;;;;;;;27.87;13.78;;;;;;;12.50;54.93;101592.41;1722413;81;21206;-55
2021/10/11 08:30:04;;;;;;;22.15;12.18;;;;;;;12.49;54.98;101595.13;1729037;81;21087;-55
2021/10/11 08:32:32;;;;;;;28.20;13.60;;;;;;;12.51;55.39;101582.06;1731584;81;21118;-55
2021/10/11 08:34:59;;;;;;;27.17;13.13;;;;;;;12.60;55.97;101578.22;1724693;81;21135;-56
2021/10/11 08:37:27;;;;;;;23.20;13.78;;;;;;;12.72;56.17;101579.66;1725345;81;21082;-56
2021/10/11 08:39:55;;;;;;;25.40;13.08;;;;;;;12.84;55.93;101572.53;1723744;81;21331;-56
2021/10/11 08:42:23;;;;;;;26.48;12.33;;;;;;;12.93;55.89;101573.16;1730807;81;21192;-55
2021/10/11 08:44:51;;;;;;;27.52;12.78;;;;;;;13.01;55.36;101563.91;1731528;81;21095;-55
2021/10/11 08:47:21;;;;;;;27.62;13.65;;;;;;;13.07;55.42;101573.60;1729554;81;21131;-55
2021/10/11 08:49:50;;;;;;;37.10;14.23;;;;;;;13.15;55.15;101574.26;1724172;81;21123;-56
2021/10/11 08:52:21;;;;;;;20.50;11.78;;;;;;;13.15;55.05;101571.56;1725116;81;21772;-56
2021/10/11 08:54:50;;;;;;;24.95;13.93;;;;;;;13.09;54.57;101562.80;1724544;80;21075;-55
2021/10/11 08:57:30;;;;;;;30.10;13.53;;;;;;;13.06;54.94;101569.15;1722038;81;21083;-55
2021/10/11 09:00:21;;;;;;;24.67;12.90;;;;;;;13.10;55.09;101565.42;1723644;81;21554;-55
2021/10/11 09:02:54;;;;;;;22.32;12.05;;;;;;;13.10;55.53;101557.34;1721388;81;21224;-55
2021/10/11 09:05:32;;;;;;;23.30;12.88;;;;;;;13.13;55.72;101557.72;1718651;81;21341;-56
2021/10/11 09:08:06;;;;;;;32.10;13.38;;;;;;;13.18;54.31;101546.33;1721852;81;21702;-55
2021/10/11 09:10:52;;;;;;;30.48;12.73;;;;;;;13.23;54.68;101540.80;1717374;81;21110;-55
2021/10/11 09:13:21;;;;;;;22.37;11.68;;;;;;;13.29;54.74;101540.58;1724951;81;21692;-55
2021/10/11 09:16:29;;;;;;;23.65;12.90;;;;;;;13.31;54.54;101544.10;1723801;81;21152;-56
2021/10/11 09:18:55;;;;;;;31.62;12.95;;;;;;;13.31;53.98;101549.48;1719954;81;21587;-55
2021/10/11 09:21:35;;;;;;;25.00;11.88;;;;;;;13.25;53.62;101544.31;1722016;80;21107;-55
2021/10/11 09:24:19;;;;;;;21.35;11.20;;;;;;;13.26;53.81;101551.46;1717655;81;21075;-55
2021/10/11 09:26:59;;;;;;;21.12;11.12;;;;;;;13.23;53.93;101540.80;1717194;81;21038;-55
2021/10/11 09:29:35;;;;;;;22.82;11.05;;;;;;;13.26;53.45;101540.69;1724819;81;21083;-55
2021/10/11 09:32:09;;;;;;;23.12;10.85;;;;;;;13.29;53.12;101535.20;1722871;81;21151;-55
2021/10/11 09:34:40;;;;;;;23.65;10.65;;;;;;;13.32;53.01;101521.62;1723602;81;21075;-55
2021/10/11 09:37:13;;;;;;;22.85;10.38;;;;;;;13.41;52.82;101523.12;1702616;82;21119;-56
2021/10/11 09:39:41;;;;;;;21.35;10.65;;;;;;;13.52;52.49;101513.35;1722704;81;21679;-55
2021/10/11 09:42:15;;;;;;;20.55;9.80;;;;;;;13.59;51.43;101517.58;1717441;81;21555;-56
2021/10/11 09:44:53;;;;;;;15.35;9.63;;;;;;;13.59;51.08;101517.58;1730900;81;21123;-55
2021/10/11 09:47:38;;;;;;;16.20;9.35;;;;;;;13.63;51.00;101525.99;1702028;81;21425;-55
2021/10/11 09:50:09;;;;;;;23.55;9.90;;;;;;;13.69;51.04;101509.59;1717452;81;21073;-55
2021/10/11 09:52:39;;;;;;;14.87;8.38;;;;;;;13.78;50.98;101519.62;1716769;81;21099;-61
2021/10/11 09:55:08;;;;;;;14.83;7.87;;;;;;;13.83;49.37;101513.62;1716257;81;21095;-59
2021/10/11 09:57:36;;;;;;;18.60;8.80;;;;;;;13.80;49.33;101506.97;1716508;81;21191;-60
2021/10/11 10:00:11;;;;;;;20.25;9.88;;;;;;;13.74;49.94;101504.91;1716351;81;21052;-56
2021/10/11 10:02:43;;;;;;;16.05;8.90;;;;;;;13.78;50.77;101514.23;1696121;81;21095;-61
2021/10/11 10:05:18;;;;;;;20.82;10.05;;;;;;;13.83;50.40;101501.00;1719816;81;21066;-60
2021/10/11 10:07:52;;;;;;;23.02;10.40;;;;;;;13.85;49.91;101505.00;1718166;81;21069;-60
2021/10/11 10:10:26;;;;;;;22.98;10.30;;;;;;;13.84;49.97;101503.25;1696648;81;21638;-56
2021/10/11 10:12:55;;;;;;;20.77;10.95;;;;;;;13.87;49.30;101500.44;1718175;81;21164;-55
2021/10/11 10:15:33;;;;;;;22.37;11.05;;;;;;;13.90;49.34;101498.97;1721561;81;21392;-57
2021/10/11 10:18:04;;;;;;;18.60;10.82;;;;;;;13.93;49.23;101496.16;1717658;81;21408;-55
2021/10/11 10:20:32;;;;;;;26.02;12.05;;;;;;;13.92;49.54;101486.77;1725451;81;21088;-56
2021/10/11 10:22:59;;;;;;;24.35;11.45;;;;;;;13.92;50.43;101480.92;1722721;81;21155;-55
2021/10/11 10:25:27;;;;;;;27.00;11.60;;;;;;;13.91;50.46;101476.46;1718282;81;21060;-56
2021/10/11 10:28:11;;;;;;;21.02;11.38;;;;;;;13.91;50.45;101471.08;1725299;81;21052;-56
2021/10/11 10:30:36;;;;;;;24.75;11.65;;;;;;;13.90;50.35;101475.56;1724429;81;21573;-55
2021/10/11 10:33:06;;;;;;;18.80;10.82;;;;;;;13.90;50.11;101466.62;1725828;81;21061;-55
2021/10/11 10:35:42;;;;;;;20.92;10.82;;;;;;;13.92;49.96;101473.28;1721317;81;21114;-55
2021/10/11 10:38:21;;;;;;;19.10;11.10;;;;;;;13.92;50.19;101467.44;1717513;81;21076;-56
2021/10/11 10:40:48;;;;;;;27.95;11.15;;;;;;;13.97;50.03;101474.88;1718899;81;21068;-57
2021/10/11 10:43:17;;;;;;;21.73;11.05;;;;;;;14.03;50.12;101463.84;1724605;81;21643;-55
2021/10/11 10:45:45;;;;;;;19.23;10.25;;;;;;;14.10;50.26;101462.29;1720354;81;21071;-59
2021/10/11 10:48:21;;;;;;;23.07;10.80;;;;;;;14.14;49.89;101460.73;1720899;81;21885;-61
2021/10/11 10:50:50;;;;;;;16.73;10.13;;;;;;;14.15;49.13;101452.20;1719070;81;21072;-60
2021/10/11 10:53:17;;;;;;;17.95;10.35;;;;;;;14.17;49.42;101451.66;1724387;81;21103;-59
2021/10/11 10:55:45;;;;;;;20.32;10.10;;;;;;;14.23;49.63;101447.37;1718377;81;21600;-60
2021/10/11 10:58:13;;;;;;;18.48;10.00;;;;;;;14.25;49.04;101448.19;1718018;81;21085;-56
2021/10/11 11:00:40;;;;;;;23.52;11.33;;;;;;;14.25;48.36;101442.80;1688897;83;21041;-56
2021/10/11 11:03:09;;;;;;;24.05;10.90;;;;;;;14.28;48.76;101448.09;1688395;83;20963;-54
2021/10/11 11:05:37;;;;;;;24.37;10.88;;;;;;;14.37;48.17;101442.80;1693341;83;21152;-62
2021/10/11 11:08:05;;;;;;;18.52;10.68;;;;;;;14.44;47.83;101447.46;1683586;83;21086;-62
2021/10/11 11:10:36;;;;;;;22.42;10.18;;;;;;;14.47;47.64;101448.68;1653322;84;21119;-55
2021/10/11 11:13:06;;;;;;;19.27;10.18;;;;;;;14.54;47.18;101451.56;1655024;84;22374;-56
2021/10/11 11:15:37;;;;;;;23.38;10.55;;;;;;;14.54;47.52;101429.97;1687915;83;20989;-55
2021/10/11 11:18:14;;;;;;;19.62;11.35;;;;;;;14.60;47.97;101428.36;1682615;83;21577;-60
2021/10/11 11:20:42;;;;;;;25.68;10.43;;;;;;;14.63;48.18;101422.43;1690727;83;21076;-61
2021/10/11 11:23:14;;;;;;;19.62;10.78;;;;;;;14.65;48.28;101423.23;1690367;83;21128;-60
2021/10/11 11:25:44;;;;;;;22.25;10.95;;;;;;;14.67;48.38;101424.05;1687722;83;21715;-60
2021/10/11 11:28:17;;;;;;;23.55;10.63;;;;;;;14.66;48.78;101425.89;1685860;83;21080;-60
2021/10/11 11:30:47;;;;;;;23.18;10.93;;;;;;;14.74;48.67;101428.31;1685678;83;21142;-60
2021/10/11 11:33:22;;;;;;;17.60;10.18;;;;;;;14.79;48.89;101414.59;1687456;83;21096;-60
2021/10/11 11:35:53;;;;;;;22.05;10.60;;;;;;;14.82;48.70;101414.50;1689690;83;21061;-60
2021/10/11 11:38:23;;;;;;;31.20;10.53;;;;;;;14.88;48.37;101413.73;1684687;83;22077;-59
2021/10/11 11:40:55;;;;;;;22.60;10.45;;;;;;;14.90;48.40;101417.25;1686491;83;21591;-59
2021/10/11 11:43:22;;;;;;;26.12;10.80;;;;;;;14.90;48.79;101411.84;1691535;83;21098;-57
2021/10/11 11:45:52;;;;;;;18.12;10.63;;;;;;;14.94;48.83;101406.34;1682396;83;21141;-55
2021/10/11 11:48:35;;;;;;;17.48;10.23;;;;;;;15.00;49.13;101408.77;1660969;84;21079;-55
2021/10/11 11:51:08;;;;;;;27.15;10.85;;;;;;;15.11;49.00;101401.55;1689932;83;21160;-55
2021/10/11 11:53:37;;;;;;;24.72;10.53;;;;;;;15.17;48.68;101392.72;1719034;81;20941;-55
2021/10/11 11:56:06;;;;;;;28.35;10.60;;;;;;;15.18;48.80;101386.36;1692140;83;21141;-54
2021/10/11 11:58:36;;;;;;;24.70;10.70;;;;;;;15.18;48.97;101386.36;1727671;81;20921;-56
2021/10/11 12:01:15;;;;;;;18.45;10.32;;;;;;;15.21;49.12;101375.02;1725340;81;20936;-55
2021/10/11 12:03:54;;;;;;;20.15;9.55;;;;;;;15.26;49.21;101372.98;1729364;81;21074;-56
2021/10/11 12:06:29;;;;;;;18.67;9.65;;;;;;;15.27;49.36;101378.78;1733867;81;21565;-56